createdAt,value
2024-02-13T00:02:06.286Z,1.13
2024-02-13T00:04:34.202Z,1.10
2024-02-13T00:07:00.935Z,1.10
2024-02-13T00:09:27.779Z,0.93
2024-02-13T00:11:54.980Z,1.23
2024-02-13T00:16:48.678Z,2.10
2024-02-13T00:19:15.449Z,2.67
2024-02-13T00:21:42.214Z,2.00
2024-02-13T00:24:09.676Z,2.38
2024-02-13T00:26:36.480Z,2.70
2024-02-13T00:29:04.223Z,2.78
2024-02-13T00:31:31.014Z,3.00
2024-02-13T00:33:57.955Z,3.33
2024-02-13T00:36:24.780Z,3.20
2024-02-13T00:38:52.776Z,3.38
2024-02-13T00:41:20.007Z,3.20
2024-02-13T00:46:13.862Z,3.47
2024-02-13T00:51:07.674Z,3.45
2024-02-13T00:53:34.433Z,4.00
2024-02-13T00:56:02.346Z,3.58
2024-02-13T00:58:29.138Z,3.10
2024-02-13T01:00:56.020Z,3.78
2024-02-13T01:03:23.061Z,3.40
2024-02-13T01:05:49.899Z,3.50
2024-02-13T01:08:24.389Z,3.05
2024-02-13T01:10:52.965Z,3.10
2024-02-13T01:13:19.799Z,2.58
2024-02-13T01:15:46.571Z,2.28
2024-02-13T01:18:15.414Z,3.03
2024-02-13T01:20:42.421Z,2.70
2024-02-13T01:23:09.182Z,2.00
2024-02-13T01:25:38.393Z,3.28
2024-02-13T01:28:05.460Z,3.20
2024-02-13T01:30:32.178Z,3.08
2024-02-13T01:32:59.389Z,2.63
2024-02-13T01:37:53.100Z,3.35
2024-02-13T01:40:19.840Z,3.38
2024-02-13T01:42:49.553Z,2.95
2024-02-13T01:45:17.924Z,3.38
2024-02-13T01:47:45.758Z,2.53
2024-02-13T01:50:15.450Z,2.38
2024-02-13T01:52:43.611Z,1.90
2024-02-13T01:55:13.527Z,2.20
2024-02-13T01:57:41.833Z,1.92
2024-02-13T02:00:14.703Z,1.90
2024-02-13T02:02:47.581Z,2.47
2024-02-13T02:05:15.299Z,2.30
2024-02-13T02:07:42.896Z,1.75
2024-02-13T02:10:10.425Z,1.77
2024-02-13T02:12:37.425Z,1.55
2024-02-13T02:15:05.392Z,0.95
2024-02-13T02:17:33.036Z,1.10
2024-02-13T02:19:59.851Z,0.65
2024-02-13T02:22:26.628Z,1.15
2024-02-13T02:24:53.525Z,1.25
2024-02-13T02:27:20.797Z,1.30
2024-02-13T02:32:15.434Z,0.80
2024-02-13T02:34:42.298Z,0.80
2024-02-13T02:37:09.108Z,0.60
2024-02-13T02:39:35.853Z,0.80
2024-02-13T02:42:02.611Z,0.90
2024-02-13T02:44:29.431Z,1.10
2024-02-13T02:46:56.214Z,1.30
2024-02-13T02:49:22.978Z,0.93
2024-02-13T02:51:49.767Z,0.80
2024-02-13T02:54:16.513Z,0.38
2024-02-13T02:56:44.668Z,0.70
2024-02-13T02:59:11.576Z,0.60
2024-02-13T03:01:38.361Z,0.80
2024-02-13T03:04:10.325Z,0.75
2024-02-13T03:06:39.712Z,0.70
2024-02-13T03:09:06.598Z,0.80
2024-02-13T03:11:35.263Z,0.77
2024-02-13T03:14:02.180Z,0.60
2024-02-13T03:16:31.065Z,0.70
2024-02-13T03:18:57.936Z,0.70
2024-02-13T03:21:24.768Z,0.50
2024-02-13T03:23:51.606Z,1.55
2024-02-13T03:26:18.526Z,0.80
2024-02-13T03:28:45.322Z,0.77
2024-02-13T03:31:12.087Z,0.60
2024-02-13T03:33:38.907Z,0.68
2024-02-13T03:36:05.841Z,0.60
2024-02-13T03:38:32.660Z,0.80
2024-02-13T03:41:00.978Z,0.65
2024-02-13T03:43:27.745Z,0.40
2024-02-13T03:45:54.602Z,0.57
2024-02-13T03:48:21.575Z,0.50
2024-02-13T03:50:48.432Z,0.40
2024-02-13T03:53:15.268Z,0.82
2024-02-13T03:55:42.131Z,0.57
2024-02-13T03:58:08.928Z,0.50
2024-02-13T04:00:36.088Z,0.63
2024-02-13T04:03:02.924Z,0.70
2024-02-13T04:05:30.053Z,0.60
2024-02-13T04:07:56.959Z,0.60
2024-02-13T04:10:24.902Z,0.90
2024-02-13T04:12:51.805Z,0.50
2024-02-13T04:15:18.776Z,0.68
2024-02-13T04:17:49.045Z,0.80
2024-02-13T04:20:16.013Z,0.60
2024-02-13T04:22:43.645Z,0.60
2024-02-13T04:25:10.983Z,1.50
2024-02-13T04:30:09.903Z,0.60
2024-02-13T04:32:40.037Z,0.50
2024-02-13T04:35:08.897Z,1.33
2024-02-13T04:37:35.645Z,0.60
2024-02-13T04:40:02.492Z,0.57
2024-02-13T04:42:33.398Z,0.47
2024-02-13T04:45:01.324Z,0.77
2024-02-13T04:47:29.343Z,0.50
2024-02-13T04:50:11.400Z,0.68
2024-02-13T04:52:39.953Z,0.70
2024-02-13T04:55:07.018Z,0.70
2024-02-13T04:57:34.970Z,0.50
2024-02-13T05:00:07.024Z,1.00
2024-02-13T05:02:40.426Z,1.20
2024-02-13T05:05:26.157Z,1.13
2024-02-13T05:07:52.993Z,1.40
2024-02-13T05:10:19.728Z,2.03
2024-02-13T05:12:46.442Z,1.60
2024-02-13T05:15:13.304Z,1.00
2024-02-13T05:17:41.134Z,0.90
2024-02-13T05:20:12.849Z,0.95
2024-02-13T05:22:39.816Z,0.80
2024-02-13T05:25:08.410Z,1.15
2024-02-13T05:27:35.517Z,0.68
2024-02-13T05:30:02.329Z,0.70
2024-02-13T05:32:29.493Z,0.90
2024-02-13T05:34:57.424Z,1.02
2024-02-13T05:37:24.187Z,0.80
2024-02-13T05:39:51.493Z,1.00
2024-02-13T05:47:14.110Z,0.90
2024-02-13T05:49:40.927Z,0.80
2024-02-13T05:52:07.736Z,1.67
2024-02-13T05:54:36.189Z,0.90
2024-02-13T05:57:03.453Z,1.42
2024-02-13T05:59:32.863Z,1.10
2024-02-13T06:01:59.786Z,1.35
2024-02-13T06:04:27.706Z,1.20
2024-02-13T06:06:54.538Z,1.30
2024-02-13T06:09:23.466Z,1.20
2024-02-13T06:11:50.325Z,1.02
2024-02-13T06:14:17.513Z,1.40
2024-02-13T06:16:55.302Z,1.45
2024-02-13T06:19:23.101Z,1.27
2024-02-13T06:21:49.842Z,2.40
2024-02-13T06:24:16.575Z,1.95
2024-02-13T06:26:44.242Z,1.52
2024-02-13T06:29:11.153Z,1.20
2024-02-13T06:31:37.932Z,1.00
2024-02-13T06:34:05.266Z,1.00
2024-02-13T06:36:32.146Z,0.90
2024-02-13T06:38:59.076Z,1.05
2024-02-13T06:41:25.907Z,1.70
2024-02-13T06:43:52.934Z,1.88
2024-02-13T06:46:19.808Z,2.05
2024-02-13T06:48:47.493Z,2.30
2024-02-13T06:51:14.793Z,2.58
2024-02-13T06:53:41.688Z,2.80
2024-02-13T06:56:09.667Z,3.03
2024-02-13T06:58:39.063Z,3.95
2024-02-13T07:01:06.688Z,1.70
2024-02-13T07:03:33.549Z,1.60
2024-02-13T07:06:00.543Z,1.40
2024-02-13T07:08:27.593Z,1.02
2024-02-13T07:10:54.894Z,1.15
2024-02-13T07:13:21.801Z,0.80
2024-02-13T07:15:49.374Z,1.00
2024-02-13T07:18:16.531Z,0.93
2024-02-13T07:20:43.470Z,1.60
2024-02-13T07:23:10.312Z,1.88
2024-02-13T07:25:37.041Z,1.55
2024-02-13T07:28:03.965Z,1.05
2024-02-13T07:30:30.699Z,1.00
2024-02-13T07:32:57.925Z,1.27
